Flight Briefing for CPX229

Departure Arrival
Seattle-Tacoma International Airport (KSEA)
Click to view FAA NOTAMS
Ted Stevens Anchorage International Airport (PANC)
Click to view FAA NOTAMS
Departure Time Arrival Time
1730 UTC 2115 UTC
Aircraft Distance
B767-300BDSF 1257nm
Departure METAR Arrival METAR
KSEA 192253Z 20008KT 10SM -RA OVC015 06/03 A3002 RMK AO2 RAE20B44 SLP175 P0000 T00560033 PANC 192253Z 36004KT 10SM FEW035 SCT080 M01/M11 A3015 RMK AO2 SLP210 T10111106
Suggested Route
BANGR9 ARRIE FOCHE PRYCE BKA LAIRE JOH WITTI4


View recent IFR Routes data
Notes



Charts and Procedures

Charts for KSEA
No chart available
Charts for PANC
No chart available

Ventusky Weather




{"cat":null,"equip":null,"transponder":null,"pbn":"PBN\/","maxpax":null,"oew":"0.0","mzfw":"0.0","mtow":"0.0","mlw":"0.0","maxfuel":"0.0"} DEVELOPMENTAL TEST USE ONLY